sensor_id;sensor_type;location;lat;lon;timestamp;pressure;altitude;pressure_sealevel;temperature;humidity
40992;BME280;29633;49.168;9.848;2023-01-09T00:02:09;95168.56;;;12.39;68.41
40992;BME280;29633;49.168;9.848;2023-01-09T00:04:34;95170.81;;;12.42;68.25
40992;BME280;29633;49.168;9.848;2023-01-09T00:07:00;95159.78;;;12.40;68.45
40992;BME280;29633;49.168;9.848;2023-01-09T00:09:26;95164.16;;;12.40;68.30
40992;BME280;29633;49.168;9.848;2023-01-09T00:11:52;95152.16;;;12.39;68.39
40992;BME280;29633;49.168;9.848;2023-01-09T00:14:19;95147.66;;;12.32;68.35
40992;BME280;29633;49.168;9.848;2023-01-09T00:16:45;95149.13;;;12.27;68.52
40992;BME280;29633;49.168;9.848;2023-01-09T00:19:11;95157.94;;;12.26;68.37
40992;BME280;29633;49.168;9.848;2023-01-09T00:21:37;95151.63;;;12.20;68.51
40992;BME280;29633;49.168;9.848;2023-01-09T00:24:03;95140.47;;;12.12;68.70
40992;BME280;29633;49.168;9.848;2023-01-09T00:26:29;95134.03;;;12.08;68.71
40992;BME280;29633;49.168;9.848;2023-01-09T00:28:54;95131.47;;;12.00;68.69
40992;BME280;29633;49.168;9.848;2023-01-09T00:31:20;95129.22;;;11.97;68.89
40992;BME280;29633;49.168;9.848;2023-01-09T00:36:20;95132.72;;;11.81;68.98
40992;BME280;29633;49.168;9.848;2023-01-09T00:38:46;95133.22;;;11.76;68.97
40992;BME280;29633;49.168;9.848;2023-01-09T00:41:14;95128.56;;;11.72;69.00
40992;BME280;29633;49.168;9.848;2023-01-09T00:44:06;95125.63;;;11.67;69.00
40992;BME280;29633;49.168;9.848;2023-01-09T00:46:31;95126.47;;;11.59;69.27
40992;BME280;29633;49.168;9.848;2023-01-09T00:48:58;95133.94;;;11.54;69.29
40992;BME280;29633;49.168;9.848;2023-01-09T00:51:24;95123.91;;;11.51;69.30
40992;BME280;29633;49.168;9.848;2023-01-09T00:53:52;95119.88;;;11.49;69.40
40992;BME280;29633;49.168;9.848;2023-01-09T00:56:18;95126.50;;;11.51;69.06
40992;BME280;29633;49.168;9.848;2023-01-09T00:58:45;95134.28;;;11.51;69.25
40992;BME280;29633;49.168;9.848;2023-01-09T01:01:11;95122.47;;;11.49;69.34
40992;BME280;29633;49.168;9.848;2023-01-09T01:03:37;95124.41;;;11.47;69.24
40992;BME280;29633;49.168;9.848;2023-01-09T01:06:03;95121.19;;;11.45;69.40
40992;BME280;29633;49.168;9.848;2023-01-09T01:08:47;95116.63;;;11.47;69.22
40992;BME280;29633;49.168;9.848;2023-01-09T01:17:57;95125.38;;;11.54;69.23
40992;BME280;29633;49.168;9.848;2023-01-09T01:20:23;95124.56;;;11.53;69.11
40992;BME280;29633;49.168;9.848;2023-01-09T01:22:49;95133.47;;;11.51;69.50
40992;BME280;29633;49.168;9.848;2023-01-09T01:25:15;95127.81;;;11.47;69.29
40992;BME280;29633;49.168;9.848;2023-01-09T01:27:42;95117.16;;;11.42;69.42
40992;BME280;29633;49.168;9.848;2023-01-09T01:30:09;95120.22;;;11.38;69.67
40992;BME280;29633;49.168;9.848;2023-01-09T01:32:35;95117.97;;;11.34;69.64
40992;BME280;29633;49.168;9.848;2023-01-09T01:35:01;95115.72;;;11.31;69.65
40992;BME280;29633;49.168;9.848;2023-01-09T01:37:26;95115.25;;;11.28;69.58
40992;BME280;29633;49.168;9.848;2023-01-09T01:39:52;95122.38;;;11.26;69.79
40992;BME280;29633;49.168;9.848;2023-01-09T01:42:18;95112.81;;;11.26;69.84
40992;BME280;29633;49.168;9.848;2023-01-09T01:45:09;95122.03;;;11.29;69.73
40992;BME280;29633;49.168;9.848;2023-01-09T01:47:41;95107.28;;;11.29;69.38
40992;BME280;29633;49.168;9.848;2023-01-09T01:50:38;95109.72;;;11.31;69.38
40992;BME280;29633;49.168;9.848;2023-01-09T01:58:24;95112.94;;;11.33;69.39
40992;BME280;29633;49.168;9.848;2023-01-09T02:00:50;95098.53;;;11.30;69.59
40992;BME280;29633;49.168;9.848;2023-01-09T02:03:17;95100.16;;;11.31;69.52
40992;BME280;29633;49.168;9.848;2023-01-09T02:05:44;95093.19;;;11.32;69.54
40992;BME280;29633;49.168;9.848;2023-01-09T02:08:10;95097.56;;;11.31;69.46
40992;BME280;29633;49.168;9.848;2023-01-09T02:10:36;95091.56;;;11.31;69.57
40992;BME280;29633;49.168;9.848;2023-01-09T02:13:03;95101.13;;;11.30;69.46
40992;BME280;29633;49.168;9.848;2023-01-09T02:15:31;95089.94;;;11.30;69.72
40992;BME280;29633;49.168;9.848;2023-01-09T02:18:21;95089.59;;;11.33;69.62
40992;BME280;29633;49.168;9.848;2023-01-09T02:21:00;95091.56;;;11.31;69.70
40992;BME280;29633;49.168;9.848;2023-01-09T02:32:42;95096.28;;;11.27;70.01
40992;BME280;29633;49.168;9.848;2023-01-09T02:35:30;95100.66;;;11.27;70.03
40992;BME280;29633;49.168;9.848;2023-01-09T02:40:52;95091.13;;;11.19;70.24
40992;BME280;29633;49.168;9.848;2023-01-09T02:43:20;95084.31;;;11.18;70.35
40992;BME280;29633;49.168;9.848;2023-01-09T02:45:46;95075.72;;;11.18;70.34
40992;BME280;29633;49.168;9.848;2023-01-09T02:48:12;95080.63;;;11.13;70.36
40992;BME280;29633;49.168;9.848;2023-01-09T02:50:49;95082.56;;;11.11;70.48
40992;BME280;29633;49.168;9.848;2023-01-09T02:56:30;95067.19;;;11.09;70.64
40992;BME280;29633;49.168;9.848;2023-01-09T02:59:24;95076.72;;;11.09;70.61
40992;BME280;29633;49.168;9.848;2023-01-09T03:04:57;95076.41;;;11.12;70.66
40992;BME280;29633;49.168;9.848;2023-01-09T03:07:33;95081.25;;;11.15;70.84
40992;BME280;29633;49.168;9.848;2023-01-09T03:10:08;95091.97;;;11.12;70.68
40992;BME280;29633;49.168;9.848;2023-01-09T03:12:34;95086.78;;;11.12;70.56
40992;BME280;29633;49.168;9.848;2023-01-09T03:15:01;95080.97;;;11.10;70.52
40992;BME280;29633;49.168;9.848;2023-01-09T03:17:38;95095.69;;;11.09;70.69
40992;BME280;29633;49.168;9.848;2023-01-09T03:20:06;95097.16;;;11.12;70.62
40992;BME280;29633;49.168;9.848;2023-01-09T03:22:33;95104.59;;;11.15;70.56
40992;BME280;29633;49.168;9.848;2023-01-09T03:24:59;95111.41;;;11.16;70.53
40992;BME280;29633;49.168;9.848;2023-01-09T03:27:24;95115.97;;;11.14;70.63
40992;BME280;29633;49.168;9.848;2023-01-09T03:29:50;95123.06;;;11.12;70.62
40992;BME280;29633;49.168;9.848;2023-01-09T03:32:18;95103.63;;;11.08;70.97
40992;BME280;29633;49.168;9.848;2023-01-09T03:34:44;95102.66;;;11.09;70.88
40992;BME280;29633;49.168;9.848;2023-01-09T03:37:09;95110.44;;;11.09;70.81
40992;BME280;29633;49.168;9.848;2023-01-09T03:39:35;95114.66;;;11.10;70.79
40992;BME280;29633;49.168;9.848;2023-01-09T03:42:01;95128.44;;;11.10;70.78
40992;BME280;29633;49.168;9.848;2023-01-09T03:44:26;95140.59;;;11.10;70.68
40992;BME280;29633;49.168;9.848;2023-01-09T03:46:52;95144.31;;;11.07;70.91
40992;BME280;29633;49.168;9.848;2023-01-09T03:49:17;95143.34;;;11.08;70.83
40992;BME280;29633;49.168;9.848;2023-01-09T03:51:43;95138.81;;;11.10;71.02
40992;BME280;29633;49.168;9.848;2023-01-09T03:54:09;95146.75;;;11.09;70.74
40992;BME280;29633;49.168;9.848;2023-01-09T03:56:34;95141.91;;;11.06;70.83
40992;BME280;29633;49.168;9.848;2023-01-09T03:59:00;95149.84;;;11.04;71.01
40992;BME280;29633;49.168;9.848;2023-01-09T04:01:26;95149.34;;;11.01;70.98
40992;BME280;29633;49.168;9.848;2023-01-09T04:03:51;95153.72;;;11.00;70.88
40992;BME280;29633;49.168;9.848;2023-01-09T04:06:17;95161.84;;;11.05;71.07
40992;BME280;29633;49.168;9.848;2023-01-09T04:08:42;95166.06;;;11.06;71.05
40992;BME280;29633;49.168;9.848;2023-01-09T04:11:10;95170.25;;;11.07;71.26
40992;BME280;29633;49.168;9.848;2023-01-09T04:13:36;95169.75;;;11.04;71.12
40992;BME280;29633;49.168;9.848;2023-01-09T04:16:01;95176.09;;;11.01;71.12
40992;BME280;29633;49.168;9.848;2023-01-09T04:18:27;95175.28;;;11.01;71.29
40992;BME280;29633;49.168;9.848;2023-01-09T04:20:53;95190.69;;;11.02;71.29
40992;BME280;29633;49.168;9.848;2023-01-09T04:23:18;95199.28;;;11.03;71.25
40992;BME280;29633;49.168;9.848;2023-01-09T04:25:44;95208.19;;;11.00;71.28
40992;BME280;29633;49.168;9.848;2023-01-09T04:28:10;95222.28;;;10.98;71.47
40992;BME280;29633;49.168;9.848;2023-01-09T04:30:35;95224.53;;;10.93;71.45
40992;BME280;29633;49.168;9.848;2023-01-09T04:33:01;95238.50;;;10.92;71.41
40992;BME280;29633;49.168;9.848;2023-01-09T04:35:27;95243.69;;;10.92;71.40
40992;BME280;29633;49.168;9.848;2023-01-09T04:37:53;95249.19;;;10.89;71.48
40992;BME280;29633;49.168;9.848;2023-01-09T04:40:18;95261.16;;;10.90;71.36
40992;BME280;29633;49.168;9.848;2023-01-09T04:42:44;95258.28;;;10.84;71.21
40992;BME280;29633;49.168;9.848;2023-01-09T04:45:10;95255.19;;;10.81;71.45
40992;BME280;29633;49.168;9.848;2023-01-09T04:47:36;95268.44;;;10.78;71.39
40992;BME280;29633;49.168;9.848;2023-01-09T04:50:03;95278.53;;;10.81;71.45
40992;BME280;29633;49.168;9.848;2023-01-09T04:52:29;95291.31;;;10.82;71.28
40992;BME280;29633;49.168;9.848;2023-01-09T04:54:54;95297.31;;;10.83;71.25
40992;BME280;29633;49.168;9.848;2023-01-09T04:57:20;95305.25;;;10.81;71.22
40992;BME280;29633;49.168;9.848;2023-01-09T04:59:45;95303.94;;;10.77;70.99
40992;BME280;29633;49.168;9.848;2023-01-09T05:02:11;95308.66;;;10.74;70.87
40992;BME280;29633;49.168;9.848;2023-01-09T05:04:37;95315.59;;;10.73;71.14
40992;BME280;29633;49.168;9.848;2023-01-09T05:07:05;95324.19;;;10.66;71.32
40992;BME280;29633;49.168;9.848;2023-01-09T05:09:31;95324.00;;;10.59;71.14
40992;BME280;29633;49.168;9.848;2023-01-09T05:11:56;95326.56;;;10.51;71.16
40992;BME280;29633;49.168;9.848;2023-01-09T05:14:24;95333.03;;;10.47;71.19
40992;BME280;29633;49.168;9.848;2023-01-09T05:16:50;95341.25;;;10.43;71.07
40992;BME280;29633;49.168;9.848;2023-01-09T05:19:15;95343.34;;;10.39;71.33
40992;BME280;29633;49.168;9.848;2023-01-09T05:21:41;95344.34;;;10.38;71.33
40992;BME280;29633;49.168;9.848;2023-01-09T05:24:06;95348.53;;;10.39;70.96
40992;BME280;29633;49.168;9.848;2023-01-09T05:26:32;95349.03;;;10.43;71.14
40992;BME280;29633;49.168;9.848;2023-01-09T05:28:58;95340.47;;;10.50;70.95
40992;BME280;29633;49.168;9.848;2023-01-09T05:31:25;95353.44;;;10.50;70.88
40992;BME280;29633;49.168;9.848;2023-01-09T05:33:51;95357.66;;;10.51;71.04
40992;BME280;29633;49.168;9.848;2023-01-09T05:36:17;95353.13;;;10.45;70.81
40992;BME280;29633;49.168;9.848;2023-01-09T05:38:43;95365.06;;;10.46;70.86
40992;BME280;29633;49.168;9.848;2023-01-09T05:41:09;95371.72;;;10.41;70.85
40992;BME280;29633;49.168;9.848;2023-01-09T05:43:34;95368.75;;;10.35;70.90
40992;BME280;29633;49.168;9.848;2023-01-09T05:46:00;95380.25;;;10.33;71.08
40992;BME280;29633;49.168;9.848;2023-01-09T05:48:26;95380.56;;;10.30;70.84
40992;BME280;29633;49.168;9.848;2023-01-09T05:50:51;95387.53;;;10.29;70.66
40992;BME280;29633;49.168;9.848;2023-01-09T05:53:17;95398.19;;;10.26;70.93
40992;BME280;29633;49.168;9.848;2023-01-09T05:55:43;95405.97;;;10.26;70.81
40992;BME280;29633;49.168;9.848;2023-01-09T05:58:08;95413.75;;;10.26;70.90
40992;BME280;29633;49.168;9.848;2023-01-09T06:00:34;95419.41;;;10.30;70.68
40992;BME280;29633;49.168;9.848;2023-01-09T06:02:59;95409.69;;;10.32;70.62
40992;BME280;29633;49.168;9.848;2023-01-09T06:05:25;95428.66;;;10.32;70.83
40992;BME280;29633;49.168;9.848;2023-01-09T06:07:51;95426.06;;;10.32;70.65
40992;BME280;29633;49.168;9.848;2023-01-09T06:10:16;95433.31;;;10.29;70.65
40992;BME280;29633;49.168;9.848;2023-01-09T06:12:46;95432.69;;;10.27;70.78
40992;BME280;29633;49.168;9.848;2023-01-09T06:15:12;95440.72;;;10.24;70.65
40992;BME280;29633;49.168;9.848;2023-01-09T06:17:40;95439.13;;;10.23;70.62
40992;BME280;29633;49.168;9.848;2023-01-09T06:20:06;95440.09;;;10.22;70.64
40992;BME280;29633;49.168;9.848;2023-01-09T06:22:32;95456.06;;;10.17;70.78
40992;BME280;29633;49.168;9.848;2023-01-09T06:24:58;95465.63;;;10.17;70.77
40992;BME280;29633;49.168;9.848;2023-01-09T06:27:24;95468.66;;;10.12;70.75
40992;BME280;29633;49.168;9.848;2023-01-09T06:29:50;95463.63;;;10.11;70.79
40992;BME280;29633;49.168;9.848;2023-01-09T06:32:15;95477.25;;;10.13;70.75
40992;BME280;29633;49.168;9.848;2023-01-09T06:34:41;95466.75;;;10.14;70.66
40992;BME280;29633;49.168;9.848;2023-01-09T06:37:06;95468.47;;;10.14;70.43
40992;BME280;29633;49.168;9.848;2023-01-09T06:39:32;95478.84;;;10.14;70.49
40992;BME280;29633;49.168;9.848;2023-01-09T06:41:58;95484.03;;;10.14;70.31
40992;BME280;29633;49.168;9.848;2023-01-09T06:44:23;95480.50;;;10.15;70.63
40992;BME280;29633;49.168;9.848;2023-01-09T06:46:49;95478.50;;;10.09;70.61
40992;BME280;29633;49.168;9.848;2023-01-09T06:49:15;95489.13;;;10.06;70.63
40992;BME280;29633;49.168;9.848;2023-01-09T06:51:42;95495.44;;;10.03;70.68
40992;BME280;29633;49.168;9.848;2023-01-09T06:54:08;95501.88;;;9.99;70.30
40992;BME280;29633;49.168;9.848;2023-01-09T06:56:33;95502.19;;;9.96;70.59
40992;BME280;29633;49.168;9.848;2023-01-09T06:58:59;95495.97;;;9.89;70.66
40992;BME280;29633;49.168;9.848;2023-01-09T07:01:25;95501.91;;;9.81;70.74
40992;BME280;29633;49.168;9.848;2023-01-09T07:03:51;95497.03;;;9.78;70.74
40992;BME280;29633;49.168;9.848;2023-01-09T07:06:16;95505.09;;;9.75;70.83
40992;BME280;29633;49.168;9.848;2023-01-09T07:08:43;95504.28;;;9.75;70.55
40992;BME280;29633;49.168;9.848;2023-01-09T07:11:08;95494.75;;;9.75;70.64
40992;BME280;29633;49.168;9.848;2023-01-09T07:13:34;95496.00;;;9.71;70.81
40992;BME280;29633;49.168;9.848;2023-01-09T07:15:59;95511.66;;;9.70;70.74
40992;BME280;29633;49.168;9.848;2023-01-09T07:18:27;95499.03;;;9.67;70.82
40992;BME280;29633;49.168;9.848;2023-01-09T07:20:53;95505.69;;;9.69;70.77
40992;BME280;29633;49.168;9.848;2023-01-09T07:23:18;95502.28;;;9.69;70.73
40992;BME280;29633;49.168;9.848;2023-01-09T07:25:44;95502.94;;;9.71;70.72
40992;BME280;29633;49.168;9.848;2023-01-09T07:28:10;95512.19;;;9.73;70.44
40992;BME280;29633;49.168;9.848;2023-01-09T07:30:36;95517.22;;;9.75;70.56
40992;BME280;29633;49.168;9.848;2023-01-09T07:33:02;95517.22;;;9.75;70.54
40992;BME280;29633;49.168;9.848;2023-01-09T07:35:27;95529.72;;;9.79;70.48
40992;BME280;29633;49.168;9.848;2023-01-09T07:37:53;95527.13;;;9.79;70.31
40992;BME280;29633;49.168;9.848;2023-01-09T07:40:18;95527.56;;;9.75;70.37
40992;BME280;29633;49.168;9.848;2023-01-09T07:42:44;95532.88;;;9.73;70.38
40992;BME280;29633;49.168;9.848;2023-01-09T07:45:10;95536.44;;;9.72;70.43
40992;BME280;29633;49.168;9.848;2023-01-09T07:47:36;95536.59;;;9.71;70.41
40992;BME280;29633;49.168;9.848;2023-01-09T07:50:03;95537.03;;;9.66;70.54
40992;BME280;29633;49.168;9.848;2023-01-09T07:52:29;95545.59;;;9.67;70.40
40992;BME280;29633;49.168;9.848;2023-01-09T07:54:55;95553.38;;;9.67;70.36
40992;BME280;29633;49.168;9.848;2023-01-09T07:57:20;95551.59;;;9.67;70.38
40992;BME280;29633;49.168;9.848;2023-01-09T07:59:46;95549.97;;;9.66;70.55
40992;BME280;29633;49.168;9.848;2023-01-09T08:02:11;95553.22;;;9.68;70.30
40992;BME280;29633;49.168;9.848;2023-01-09T08:04:37;95556.78;;;9.67;70.19
40992;BME280;29633;49.168;9.848;2023-01-09T08:07:03;95551.72;;;9.66;70.09
40992;BME280;29633;49.168;9.848;2023-01-09T08:09:29;95556.78;;;9.67;70.32
40992;BME280;29633;49.168;9.848;2023-01-09T08:11:55;95554.31;;;9.66;70.29
40992;BME280;29633;49.168;9.848;2023-01-09T08:14:21;95563.72;;;9.67;70.12
40992;BME280;29633;49.168;9.848;2023-01-09T08:16:47;95556.38;;;9.62;70.17
40992;BME280;29633;49.168;9.848;2023-01-09T08:19:13;95559.97;;;9.61;69.99
40992;BME280;29633;49.168;9.848;2023-01-09T08:21:39;95562.38;;;9.63;70.24
40992;BME280;29633;49.168;9.848;2023-01-09T08:24:05;95566.09;;;9.60;70.21
40992;BME280;29633;49.168;9.848;2023-01-09T08:26:31;95576.44;;;9.60;70.18
40992;BME280;29633;49.168;9.848;2023-01-09T08:28:56;95562.16;;;9.56;70.35
40992;BME280;29633;49.168;9.848;2023-01-09T08:31:22;95561.50;;;9.54;70.22
40992;BME280;29633;49.168;9.848;2023-01-09T08:33:48;95560.28;;;9.49;70.48
40992;BME280;29633;49.168;9.848;2023-01-09T08:36:13;95561.53;;;9.45;70.15
40992;BME280;29633;49.168;9.848;2023-01-09T08:38:39;95559.94;;;9.44;70.57
40992;BME280;29633;49.168;9.848;2023-01-09T08:41:05;95565.91;;;9.44;70.42
40992;BME280;29633;49.168;9.848;2023-01-09T08:43:50;95557.47;;;9.42;70.37
40992;BME280;29633;49.168;9.848;2023-01-09T08:46:34;95563.19;;;9.46;70.28
40992;BME280;29633;49.168;9.848;2023-01-09T08:49:19;95568.22;;;9.47;70.39
40992;BME280;29633;49.168;9.848;2023-01-09T08:51:45;95563.03;;;9.47;70.33
40992;BME280;29633;49.168;9.848;2023-01-09T08:54:10;95575.47;;;9.44;70.40
40992;BME280;29633;49.168;9.848;2023-01-09T08:56:36;95577.88;;;9.45;70.40
40992;BME280;29633;49.168;9.848;2023-01-09T08:59:02;95581.16;;;9.47;70.38
40992;BME280;29633;49.168;9.848;2023-01-09T09:01:27;95574.56;;;9.53;70.37
40992;BME280;29633;49.168;9.848;2023-01-09T09:03:53;95578.94;;;9.52;70.30
40992;BME280;29633;49.168;9.848;2023-01-09T09:06:19;95575.38;;;9.53;70.04
40992;BME280;29633;49.168;9.848;2023-01-09T09:08:44;95581.22;;;9.55;70.20
40992;BME280;29633;49.168;9.848;2023-01-09T09:11:10;95584.63;;;9.56;70.12
40992;BME280;29633;49.168;9.848;2023-01-09T09:13:36;95567.75;;;9.52;70.19
40992;BME280;29633;49.168;9.848;2023-01-09T09:16:01;95571.47;;;9.49;70.43
40992;BME280;29633;49.168;9.848;2023-01-09T09:18:27;95560.81;;;9.52;70.49
40992;BME280;29633;49.168;9.848;2023-01-09T09:20:52;95567.31;;;9.56;70.53
40992;BME280;29633;49.168;9.848;2023-01-09T09:23:18;95557.28;;;9.88;70.15
40992;BME280;29633;49.168;9.848;2023-01-09T09:25:44;95556.97;;;10.45;68.98
40992;BME280;29633;49.168;9.848;2023-01-09T09:28:09;95557.56;;;10.64;69.10
40992;BME280;29633;49.168;9.848;2023-01-09T09:30:36;95546.22;;;10.65;69.17
40992;BME280;29633;49.168;9.848;2023-01-09T09:33:03;95543.50;;;10.67;69.33
40992;BME280;29633;49.168;9.848;2023-01-09T09:35:29;95550.66;;;11.07;68.57
40992;BME280;29633;49.168;9.848;2023-01-09T09:37:58;95550.84;;;11.13;68.62
40992;BME280;29633;49.168;9.848;2023-01-09T09:48:56;95541.69;;;11.51;69.43
40992;BME280;29633;49.168;9.848;2023-01-09T09:54:18;95549.53;;;11.67;69.55
40992;BME280;29633;49.168;9.848;2023-01-09T09:56:54;95553.88;;;11.59;69.72
40992;BME280;29633;49.168;9.848;2023-01-09T09:59:23;95557.28;;;11.51;69.95
40992;BME280;29633;49.168;9.848;2023-01-09T10:02:46;95548.69;;;11.43;70.13
40992;BME280;29633;49.168;9.848;2023-01-09T10:04:47;95555.09;;;11.30;70.13
40992;BME280;29633;49.168;9.848;2023-01-09T10:07:19;95548.09;;;11.23;70.41
40992;BME280;29633;49.168;9.848;2023-01-09T10:09:52;95547.75;;;11.18;70.34
40992;BME280;29633;49.168;9.848;2023-01-09T10:12:41;95544.19;;;11.19;70.36
40992;BME280;29633;49.168;9.848;2023-01-09T10:15:49;95551.03;;;11.20;70.18
40992;BME280;29633;49.168;9.848;2023-01-09T10:18:28;95538.97;;;11.11;70.25
40992;BME280;29633;49.168;9.848;2023-01-09T10:26:47;95541.19;;;10.98;70.12
40992;BME280;29633;49.168;9.848;2023-01-09T10:34:48;95547.16;;;10.90;70.16
40992;BME280;29633;49.168;9.848;2023-01-09T10:37:28;95549.94;;;10.89;69.98
40992;BME280;29633;49.168;9.848;2023-01-09T10:42:57;95548.78;;;10.91;69.87
40992;BME280;29633;49.168;9.848;2023-01-09T10:47:50;95556.13;;;10.96;69.79
40992;BME280;29633;49.168;9.848;2023-01-09T10:50:23;95559.34;;;10.98;69.65
40992;BME280;29633;49.168;9.848;2023-01-09T10:52:50;95542.03;;;10.98;69.78
40992;BME280;29633;49.168;9.848;2023-01-09T10:55:37;95545.94;;;11.02;69.66
40992;BME280;29633;49.168;9.848;2023-01-09T10:58:12;95526.19;;;11.09;69.56
40992;BME280;29633;49.168;9.848;2023-01-09T11:00:39;95536.75;;;11.16;69.67
40992;BME280;29633;49.168;9.848;2023-01-09T11:03:05;95536.31;;;11.28;69.71
40992;BME280;29633;49.168;9.848;2023-01-09T11:05:34;95535.22;;;11.55;69.43
40992;BME280;29633;49.168;9.848;2023-01-09T11:13:33;95535.94;;;11.73;69.55
40992;BME280;29633;49.168;9.848;2023-01-09T11:16:21;95532.38;;;11.74;69.62
40992;BME280;29633;49.168;9.848;2023-01-09T11:18:55;95515.66;;;11.77;69.65
40992;BME280;29633;49.168;9.848;2023-01-09T11:21:37;95526.53;;;11.80;69.47
40992;BME280;29633;49.168;9.848;2023-01-09T11:26:43;95528.44;;;11.70;69.56
40992;BME280;29633;49.168;9.848;2023-01-09T11:29:13;95523.56;;;11.59;69.68
40992;BME280;29633;49.168;9.848;2023-01-09T11:31:41;95534.59;;;11.53;69.61
40992;BME280;29633;49.168;9.848;2023-01-09T11:34:18;95544.75;;;11.47;69.71
40992;BME280;29633;49.168;9.848;2023-01-09T11:36:45;95534.53;;;11.37;69.88
40992;BME280;29633;49.168;9.848;2023-01-09T11:39:25;95530.63;;;11.33;69.96
40992;BME280;29633;49.168;9.848;2023-01-09T11:41:53;95536.94;;;11.30;69.91
40992;BME280;29633;49.168;9.848;2023-01-09T11:44:20;95529.50;;;11.27;69.80
40992;BME280;29633;49.168;9.848;2023-01-09T11:46:46;95531.13;;;11.28;69.88
40992;BME280;29633;49.168;9.848;2023-01-09T11:51:38;95527.56;;;11.38;69.55
40992;BME280;29633;49.168;9.848;2023-01-09T11:54:23;95527.75;;;11.52;69.51
40992;BME280;29633;49.168;9.848;2023-01-09T11:56:50;95530.38;;;11.60;69.37
40992;BME280;29633;49.168;9.848;2023-01-09T11:59:18;95532.00;;;11.69;69.20
40992;BME280;29633;49.168;9.848;2023-01-09T12:02:33;95539.19;;;11.75;69.23
40992;BME280;29633;49.168;9.848;2023-01-09T12:04:38;95532.72;;;11.71;69.29
40992;BME280;29633;49.168;9.848;2023-01-09T12:10:27;95544.66;;;11.56;69.54
40992;BME280;29633;49.168;9.848;2023-01-09T12:24:10;95566.47;;;11.38;69.76
40992;BME280;29633;49.168;9.848;2023-01-09T12:38:26;95559.81;;;11.27;69.57
40992;BME280;29633;49.168;9.848;2023-01-09T12:41:19;95550.41;;;11.34;69.45
40992;BME280;29633;49.168;9.848;2023-01-09T12:46:20;95526.69;;;11.71;69.61
40992;BME280;29633;49.168;9.848;2023-01-09T12:52:09;95522.47;;;12.26;69.21
40992;BME280;29633;49.168;9.848;2023-01-09T12:54:46;95518.38;;;12.48;69.21
40992;BME280;29633;49.168;9.848;2023-01-09T12:59:49;95520.97;;;12.64;69.28
40992;BME280;29633;49.168;9.848;2023-01-09T13:02:41;95532.16;;;12.65;69.27
40992;BME280;29633;49.168;9.848;2023-01-09T13:05:42;95537.38;;;12.57;69.24
40992;BME280;29633;49.168;9.848;2023-01-09T13:08:35;95550.22;;;12.42;69.20
40992;BME280;29633;49.168;9.848;2023-01-09T13:11:23;95554.63;;;12.33;69.31
40992;BME280;29633;49.168;9.848;2023-01-09T13:14:05;95564.38;;;12.23;69.22
40992;BME280;29633;49.168;9.848;2023-01-09T13:16:38;95576.06;;;12.11;69.11
40992;BME280;29633;49.168;9.848;2023-01-09T13:21:35;95610.91;;;11.76;69.70
40992;BME280;29633;49.168;9.848;2023-01-09T13:27:08;95608.53;;;11.49;69.92
40992;BME280;29633;49.168;9.848;2023-01-09T13:29:36;95602.16;;;11.35;69.77
40992;BME280;29633;49.168;9.848;2023-01-09T13:32:27;95609.59;;;11.30;69.89
40992;BME280;29633;49.168;9.848;2023-01-09T13:34:57;95608.13;;;11.28;69.68
40992;BME280;29633;49.168;9.848;2023-01-09T13:37:33;95604.88;;;11.26;69.84
40992;BME280;29633;49.168;9.848;2023-01-09T13:40:25;95612.31;;;11.21;69.89
40992;BME280;29633;49.168;9.848;2023-01-09T13:43:01;95611.31;;;11.14;69.90
40992;BME280;29633;49.168;9.848;2023-01-09T13:45:28;95614.38;;;11.09;69.99
40992;BME280;29633;49.168;9.848;2023-01-09T13:50:37;95616.78;;;11.11;69.66
40992;BME280;29633;49.168;9.848;2023-01-09T13:56:04;95621.00;;;11.12;69.63
40992;BME280;29633;49.168;9.848;2023-01-09T13:58:30;95622.66;;;11.13;69.59
40992;BME280;29633;49.168;9.848;2023-01-09T14:07:49;95625.25;;;11.13;69.26
40992;BME280;29633;49.168;9.848;2023-01-09T14:10:02;95621.81;;;11.12;69.22
40992;BME280;29633;49.168;9.848;2023-01-09T14:12:29;95622.19;;;11.17;69.43
40992;BME280;29633;49.168;9.848;2023-01-09T14:14:58;95623.78;;;11.18;69.17
40992;BME280;29633;49.168;9.848;2023-01-09T14:17:33;95629.19;;;11.25;69.31
40992;BME280;29633;49.168;9.848;2023-01-09T14:20:02;95629.84;;;11.27;69.06
40992;BME280;29633;49.168;9.848;2023-01-09T14:22:31;95627.25;;;11.27;69.05
40992;BME280;29633;49.168;9.848;2023-01-09T14:25:20;95625.63;;;11.26;69.40
40992;BME280;29633;49.168;9.848;2023-01-09T14:35:41;95646.63;;;11.15;69.22
40992;BME280;29633;49.168;9.848;2023-01-09T14:38:28;95647.63;;;11.14;69.22
40992;BME280;29633;49.168;9.848;2023-01-09T14:43:45;95651.50;;;11.10;69.26
40992;BME280;29633;49.168;9.848;2023-01-09T14:46:18;95657.25;;;11.04;69.31
40992;BME280;29633;49.168;9.848;2023-01-09T14:51:19;95673.44;;;10.98;69.35
40992;BME280;29633;49.168;9.848;2023-01-09T14:53:46;95677.81;;;10.97;69.10
40992;BME280;29633;49.168;9.848;2023-01-09T14:56:31;95681.22;;;10.98;69.16
40992;BME280;29633;49.168;9.848;2023-01-09T14:59:10;95688.69;;;11.01;69.07
40992;BME280;29633;49.168;9.848;2023-01-09T15:01:36;95678.00;;;11.04;69.18
40992;BME280;29633;49.168;9.848;2023-01-09T15:04:26;95691.66;;;11.06;69.10
40992;BME280;29633;49.168;9.848;2023-01-09T15:06:56;95691.97;;;11.03;69.29
40992;BME280;29633;49.168;9.848;2023-01-09T15:09:38;95696.66;;;10.99;69.20
40992;BME280;29633;49.168;9.848;2023-01-09T15:12:08;95702.63;;;11.00;69.28
40992;BME280;29633;49.168;9.848;2023-01-09T15:14:36;95692.03;;;10.93;69.13
40992;BME280;29633;49.168;9.848;2023-01-09T15:17:04;95711.47;;;10.89;69.25
40992;BME280;29633;49.168;9.848;2023-01-09T15:19:30;95718.59;;;10.87;69.37
40992;BME280;29633;49.168;9.848;2023-01-09T15:22:03;95714.81;;;10.81;69.07
40992;BME280;29633;49.168;9.848;2023-01-09T15:24:31;95726.47;;;10.77;69.40
40992;BME280;29633;49.168;9.848;2023-01-09T15:27:11;95730.63;;;10.70;69.52
40992;BME280;29633;49.168;9.848;2023-01-09T15:29:39;95732.69;;;10.67;69.77
40992;BME280;29633;49.168;9.848;2023-01-09T15:32:26;95730.22;;;10.65;69.58